sensor_id;sensor_type;location;lat;lon;timestamp;P1;durP1;ratioP1;P2;durP2;ratioP2
6288;SDS011;3177;49.880;8.836;2022-11-20T00:00:52;27.40;;;16.10;;
6288;SDS011;3177;49.880;8.836;2022-11-20T00:03:19;26.40;;;18.00;;
6288;SDS011;3177;49.880;8.836;2022-11-20T00:05:46;27.67;;;16.93;;
6288;SDS011;3177;49.880;8.836;2022-11-20T00:08:13;28.00;;;16.63;;
6288;SDS011;3177;49.880;8.836;2022-11-20T00:10:40;28.40;;;15.93;;
6288;SDS011;3177;49.880;8.836;2022-11-20T00:13:07;25.97;;;17.27;;
6288;SDS011;3177;49.880;8.836;2022-11-20T00:15:34;26.60;;;15.43;;
6288;SDS011;3177;49.880;8.836;2022-11-20T00:18:03;25.17;;;15.37;;
6288;SDS011;3177;49.880;8.836;2022-11-20T00:20:30;27.50;;;16.30;;
6288;SDS011;3177;49.880;8.836;2022-11-20T00:22:57;26.00;;;15.67;;
6288;SDS011;3177;49.880;8.836;2022-11-20T00:25:24;24.73;;;15.33;;
6288;SDS011;3177;49.880;8.836;2022-11-20T00:27:51;26.67;;;16.43;;
6288;SDS011;3177;49.880;8.836;2022-11-20T00:30:18;22.30;;;14.53;;
6288;SDS011;3177;49.880;8.836;2022-11-20T00:32:45;26.50;;;15.00;;
6288;SDS011;3177;49.880;8.836;2022-11-20T00:35:14;23.70;;;15.10;;
6288;SDS011;3177;49.880;8.836;2022-11-20T00:37:41;22.93;;;15.20;;
6288;SDS011;3177;49.880;8.836;2022-11-20T00:40:08;25.50;;;15.00;;
6288;SDS011;3177;49.880;8.836;2022-11-20T00:42:36;23.63;;;15.50;;
6288;SDS011;3177;49.880;8.836;2022-11-20T00:45:03;28.03;;;15.27;;
6288;SDS011;3177;49.880;8.836;2022-11-20T00:47:30;27.17;;;15.17;;
6288;SDS011;3177;49.880;8.836;2022-11-20T00:49:57;23.70;;;14.70;;
6288;SDS011;3177;49.880;8.836;2022-11-20T00:52:25;21.10;;;14.03;;
6288;SDS011;3177;49.880;8.836;2022-11-20T00:54:52;20.17;;;13.20;;
6288;SDS011;3177;49.880;8.836;2022-11-20T00:57:19;24.50;;;14.63;;
6288;SDS011;3177;49.880;8.836;2022-11-20T00:59:46;20.90;;;13.20;;
6288;SDS011;3177;49.880;8.836;2022-11-20T01:02:14;23.33;;;13.43;;
6288;SDS011;3177;49.880;8.836;2022-11-20T01:04:41;22.03;;;13.37;;
6288;SDS011;3177;49.880;8.836;2022-11-20T01:07:08;21.67;;;13.63;;
6288;SDS011;3177;49.880;8.836;2022-11-20T01:09:36;21.43;;;13.80;;
6288;SDS011;3177;49.880;8.836;2022-11-20T01:12:04;22.23;;;14.87;;
6288;SDS011;3177;49.880;8.836;2022-11-20T01:14:31;18.67;;;13.60;;
6288;SDS011;3177;49.880;8.836;2022-11-20T01:16:58;21.57;;;14.30;;
6288;SDS011;3177;49.880;8.836;2022-11-20T01:19:25;20.77;;;13.30;;
6288;SDS011;3177;49.880;8.836;2022-11-20T01:21:53;22.63;;;14.13;;
6288;SDS011;3177;49.880;8.836;2022-11-20T01:24:20;24.33;;;14.30;;
6288;SDS011;3177;49.880;8.836;2022-11-20T01:26:49;24.13;;;14.83;;
6288;SDS011;3177;49.880;8.836;2022-11-20T01:29:17;23.50;;;15.00;;
6288;SDS011;3177;49.880;8.836;2022-11-20T01:31:45;21.97;;;14.90;;
6288;SDS011;3177;49.880;8.836;2022-11-20T01:34:13;24.17;;;14.57;;
6288;SDS011;3177;49.880;8.836;2022-11-20T01:36:41;17.27;;;12.93;;
6288;SDS011;3177;49.880;8.836;2022-11-20T01:39:10;20.23;;;13.83;;
6288;SDS011;3177;49.880;8.836;2022-11-20T01:41:37;23.20;;;13.53;;
6288;SDS011;3177;49.880;8.836;2022-11-20T01:47:05;22.07;;;14.93;;
6288;SDS011;3177;49.880;8.836;2022-11-20T01:49:34;20.13;;;13.63;;
6288;SDS011;3177;49.880;8.836;2022-11-20T01:52:04;24.37;;;14.77;;
6288;SDS011;3177;49.880;8.836;2022-11-20T01:54:33;22.00;;;14.57;;
6288;SDS011;3177;49.880;8.836;2022-11-20T01:57:02;23.67;;;14.13;;
6288;SDS011;3177;49.880;8.836;2022-11-20T01:59:31;25.67;;;14.90;;
6288;SDS011;3177;49.880;8.836;2022-11-20T02:01:58;23.77;;;14.83;;
6288;SDS011;3177;49.880;8.836;2022-11-20T02:04:27;26.00;;;14.57;;
6288;SDS011;3177;49.880;8.836;2022-11-20T02:06:55;25.63;;;16.07;;
6288;SDS011;3177;49.880;8.836;2022-11-20T02:09:24;26.67;;;14.57;;
6288;SDS011;3177;49.880;8.836;2022-11-20T02:11:51;23.23;;;14.63;;
6288;SDS011;3177;49.880;8.836;2022-11-20T02:14:18;26.80;;;14.80;;
6288;SDS011;3177;49.880;8.836;2022-11-20T02:16:45;28.90;;;15.70;;
6288;SDS011;3177;49.880;8.836;2022-11-20T02:19:17;23.57;;;14.43;;
6288;SDS011;3177;49.880;8.836;2022-11-20T02:21:48;26.37;;;15.23;;
6288;SDS011;3177;49.880;8.836;2022-11-20T02:24:17;26.47;;;15.00;;
6288;SDS011;3177;49.880;8.836;2022-11-20T02:26:46;28.10;;;16.00;;
6288;SDS011;3177;49.880;8.836;2022-11-20T02:29:16;23.70;;;15.07;;
6288;SDS011;3177;49.880;8.836;2022-11-20T02:31:44;29.47;;;15.77;;
6288;SDS011;3177;49.880;8.836;2022-11-20T02:34:11;26.80;;;15.83;;
6288;SDS011;3177;49.880;8.836;2022-11-20T02:36:39;26.43;;;15.27;;
6288;SDS011;3177;49.880;8.836;2022-11-20T02:39:06;24.80;;;14.60;;
6288;SDS011;3177;49.880;8.836;2022-11-20T02:41:36;28.80;;;15.47;;
6288;SDS011;3177;49.880;8.836;2022-11-20T02:44:04;24.60;;;14.53;;
6288;SDS011;3177;49.880;8.836;2022-11-20T02:46:32;24.37;;;14.40;;
6288;SDS011;3177;49.880;8.836;2022-11-20T02:49:00;23.90;;;14.13;;
6288;SDS011;3177;49.880;8.836;2022-11-20T02:51:27;23.27;;;14.33;;
6288;SDS011;3177;49.880;8.836;2022-11-20T02:53:54;24.00;;;14.97;;
6288;SDS011;3177;49.880;8.836;2022-11-20T02:56:21;21.13;;;13.87;;
6288;SDS011;3177;49.880;8.836;2022-11-20T02:58:49;22.77;;;14.43;;
6288;SDS011;3177;49.880;8.836;2022-11-20T03:01:17;27.63;;;14.67;;
6288;SDS011;3177;49.880;8.836;2022-11-20T03:03:44;22.43;;;14.17;;
6288;SDS011;3177;49.880;8.836;2022-11-20T03:06:13;24.87;;;14.97;;
6288;SDS011;3177;49.880;8.836;2022-11-20T03:08:40;27.23;;;15.07;;
6288;SDS011;3177;49.880;8.836;2022-11-20T03:11:07;25.20;;;14.97;;
6288;SDS011;3177;49.880;8.836;2022-11-20T03:13:35;24.47;;;14.40;;
6288;SDS011;3177;49.880;8.836;2022-11-20T03:16:08;27.47;;;15.63;;
6288;SDS011;3177;49.880;8.836;2022-11-20T03:18:35;26.00;;;15.30;;
6288;SDS011;3177;49.880;8.836;2022-11-20T03:21:02;25.73;;;15.33;;
6288;SDS011;3177;49.880;8.836;2022-11-20T03:23:30;24.73;;;15.30;;
6288;SDS011;3177;49.880;8.836;2022-11-20T03:26:07;27.37;;;15.80;;
6288;SDS011;3177;49.880;8.836;2022-11-20T03:28:34;27.23;;;15.83;;
6288;SDS011;3177;49.880;8.836;2022-11-20T03:31:04;26.17;;;14.97;;
6288;SDS011;3177;49.880;8.836;2022-11-20T03:33:32;24.67;;;14.83;;
6288;SDS011;3177;49.880;8.836;2022-11-20T03:36:00;23.87;;;13.97;;
6288;SDS011;3177;49.880;8.836;2022-11-20T03:38:28;21.13;;;13.87;;
6288;SDS011;3177;49.880;8.836;2022-11-20T03:40:57;22.77;;;14.80;;
6288;SDS011;3177;49.880;8.836;2022-11-20T03:43:24;27.67;;;15.63;;
6288;SDS011;3177;49.880;8.836;2022-11-20T03:45:51;21.13;;;13.50;;
6288;SDS011;3177;49.880;8.836;2022-11-20T03:48:19;22.23;;;14.30;;
6288;SDS011;3177;49.880;8.836;2022-11-20T03:50:47;25.70;;;15.17;;
6288;SDS011;3177;49.880;8.836;2022-11-20T03:53:14;25.40;;;14.77;;
6288;SDS011;3177;49.880;8.836;2022-11-20T03:55:41;27.30;;;16.23;;
6288;SDS011;3177;49.880;8.836;2022-11-20T03:58:08;26.97;;;15.57;;
6288;SDS011;3177;49.880;8.836;2022-11-20T04:00:35;29.70;;;17.10;;
6288;SDS011;3177;49.880;8.836;2022-11-20T04:03:03;29.17;;;15.87;;
6288;SDS011;3177;49.880;8.836;2022-11-20T04:05:30;25.70;;;14.40;;
6288;SDS011;3177;49.880;8.836;2022-11-20T04:07:58;25.77;;;15.07;;
6288;SDS011;3177;49.880;8.836;2022-11-20T04:10:25;29.37;;;16.60;;
6288;SDS011;3177;49.880;8.836;2022-11-20T04:12:52;28.07;;;15.73;;
6288;SDS011;3177;49.880;8.836;2022-11-20T04:15:19;25.13;;;15.40;;
6288;SDS011;3177;49.880;8.836;2022-11-20T04:17:46;24.43;;;15.60;;
6288;SDS011;3177;49.880;8.836;2022-11-20T04:20:14;25.27;;;16.23;;
6288;SDS011;3177;49.880;8.836;2022-11-20T04:22:41;26.20;;;15.53;;
6288;SDS011;3177;49.880;8.836;2022-11-20T04:25:09;27.60;;;15.77;;
6288;SDS011;3177;49.880;8.836;2022-11-20T04:27:36;33.23;;;17.87;;
6288;SDS011;3177;49.880;8.836;2022-11-20T04:30:03;31.63;;;17.80;;
6288;SDS011;3177;49.880;8.836;2022-11-20T04:32:31;26.70;;;15.53;;
6288;SDS011;3177;49.880;8.836;2022-11-20T04:34:58;35.10;;;17.33;;
6288;SDS011;3177;49.880;8.836;2022-11-20T04:37:25;30.10;;;15.33;;
6288;SDS011;3177;49.880;8.836;2022-11-20T04:39:52;27.90;;;15.50;;
6288;SDS011;3177;49.880;8.836;2022-11-20T04:42:20;27.70;;;15.67;;
6288;SDS011;3177;49.880;8.836;2022-11-20T04:44:56;27.40;;;15.47;;
6288;SDS011;3177;49.880;8.836;2022-11-20T04:47:24;31.90;;;16.50;;
6288;SDS011;3177;49.880;8.836;2022-11-20T04:49:51;29.07;;;16.03;;
6288;SDS011;3177;49.880;8.836;2022-11-20T04:52:18;27.83;;;15.63;;
6288;SDS011;3177;49.880;8.836;2022-11-20T04:54:45;34.83;;;16.27;;
6288;SDS011;3177;49.880;8.836;2022-11-20T04:57:12;31.73;;;16.50;;
6288;SDS011;3177;49.880;8.836;2022-11-20T04:59:41;31.83;;;16.67;;
6288;SDS011;3177;49.880;8.836;2022-11-20T05:02:08;34.80;;;15.67;;
6288;SDS011;3177;49.880;8.836;2022-11-20T05:04:36;37.93;;;17.87;;
6288;SDS011;3177;49.880;8.836;2022-11-20T05:07:03;30.23;;;15.40;;
6288;SDS011;3177;49.880;8.836;2022-11-20T05:09:30;31.93;;;17.00;;
6288;SDS011;3177;49.880;8.836;2022-11-20T05:11:57;32.50;;;16.10;;
6288;SDS011;3177;49.880;8.836;2022-11-20T05:14:24;31.37;;;16.80;;
6288;SDS011;3177;49.880;8.836;2022-11-20T05:16:53;31.73;;;16.57;;
6288;SDS011;3177;49.880;8.836;2022-11-20T05:19:20;36.03;;;17.03;;
6288;SDS011;3177;49.880;8.836;2022-11-20T05:21:47;39.20;;;17.27;;
6288;SDS011;3177;49.880;8.836;2022-11-20T05:24:14;33.20;;;15.73;;
6288;SDS011;3177;49.880;8.836;2022-11-20T05:26:41;31.40;;;16.10;;
6288;SDS011;3177;49.880;8.836;2022-11-20T05:29:09;29.10;;;15.10;;
6288;SDS011;3177;49.880;8.836;2022-11-20T05:31:36;33.43;;;16.37;;
6288;SDS011;3177;49.880;8.836;2022-11-20T05:34:06;35.20;;;16.37;;
6288;SDS011;3177;49.880;8.836;2022-11-20T05:36:34;33.40;;;16.97;;
6288;SDS011;3177;49.880;8.836;2022-11-20T05:39:01;34.70;;;16.60;;
6288;SDS011;3177;49.880;8.836;2022-11-20T05:41:28;32.97;;;17.20;;
6288;SDS011;3177;49.880;8.836;2022-11-20T05:43:55;30.20;;;16.00;;
6288;SDS011;3177;49.880;8.836;2022-11-20T05:46:23;30.50;;;15.47;;
6288;SDS011;3177;49.880;8.836;2022-11-20T05:48:50;33.17;;;16.53;;
6288;SDS011;3177;49.880;8.836;2022-11-20T05:51:18;31.43;;;16.50;;
6288;SDS011;3177;49.880;8.836;2022-11-20T05:53:45;34.70;;;16.37;;
6288;SDS011;3177;49.880;8.836;2022-11-20T05:56:13;30.13;;;16.10;;
6288;SDS011;3177;49.880;8.836;2022-11-20T05:58:41;37.30;;;17.03;;
6288;SDS011;3177;49.880;8.836;2022-11-20T06:01:09;33.13;;;15.53;;
6288;SDS011;3177;49.880;8.836;2022-11-20T06:03:37;30.10;;;15.00;;
6288;SDS011;3177;49.880;8.836;2022-11-20T06:06:05;30.57;;;14.73;;
6288;SDS011;3177;49.880;8.836;2022-11-20T06:08:33;33.83;;;16.17;;
6288;SDS011;3177;49.880;8.836;2022-11-20T06:11:04;35.37;;;16.63;;
6288;SDS011;3177;49.880;8.836;2022-11-20T06:13:31;34.10;;;15.43;;
6288;SDS011;3177;49.880;8.836;2022-11-20T06:15:58;44.67;;;16.57;;
6288;SDS011;3177;49.880;8.836;2022-11-20T06:18:25;42.83;;;16.87;;
6288;SDS011;3177;49.880;8.836;2022-11-20T06:20:58;35.10;;;15.83;;
6288;SDS011;3177;49.880;8.836;2022-11-20T06:23:27;31.00;;;16.30;;
6288;SDS011;3177;49.880;8.836;2022-11-20T06:25:55;37.93;;;17.13;;
6288;SDS011;3177;49.880;8.836;2022-11-20T06:28:22;34.90;;;15.43;;
6288;SDS011;3177;49.880;8.836;2022-11-20T06:30:49;40.77;;;16.17;;
6288;SDS011;3177;49.880;8.836;2022-11-20T06:33:16;34.67;;;14.47;;
6288;SDS011;3177;49.880;8.836;2022-11-20T06:35:43;29.03;;;15.00;;
6288;SDS011;3177;49.880;8.836;2022-11-20T06:38:11;40.40;;;15.57;;
6288;SDS011;3177;49.880;8.836;2022-11-20T06:40:39;34.17;;;14.47;;
6288;SDS011;3177;49.880;8.836;2022-11-20T06:43:07;40.63;;;15.37;;
6288;SDS011;3177;49.880;8.836;2022-11-20T06:45:35;32.30;;;15.07;;
6288;SDS011;3177;49.880;8.836;2022-11-20T06:48:02;33.37;;;14.47;;
6288;SDS011;3177;49.880;8.836;2022-11-20T06:50:29;35.03;;;14.90;;
6288;SDS011;3177;49.880;8.836;2022-11-20T06:52:56;40.30;;;15.70;;
6288;SDS011;3177;49.880;8.836;2022-11-20T06:55:23;35.67;;;14.87;;
6288;SDS011;3177;49.880;8.836;2022-11-20T06:57:50;39.80;;;15.67;;
6288;SDS011;3177;49.880;8.836;2022-11-20T07:00:19;35.23;;;15.87;;
6288;SDS011;3177;49.880;8.836;2022-11-20T07:02:46;30.37;;;13.90;;
6288;SDS011;3177;49.880;8.836;2022-11-20T07:05:13;33.67;;;14.83;;
6288;SDS011;3177;49.880;8.836;2022-11-20T07:07:41;28.37;;;13.97;;
6288;SDS011;3177;49.880;8.836;2022-11-20T07:10:08;26.17;;;13.33;;
6288;SDS011;3177;49.880;8.836;2022-11-20T07:12:36;25.50;;;13.47;;
6288;SDS011;3177;49.880;8.836;2022-11-20T07:15:03;26.87;;;12.97;;
6288;SDS011;3177;49.880;8.836;2022-11-20T07:17:32;32.80;;;14.70;;
6288;SDS011;3177;49.880;8.836;2022-11-20T07:19:59;24.47;;;14.07;;
6288;SDS011;3177;49.880;8.836;2022-11-20T07:22:26;30.50;;;13.37;;
6288;SDS011;3177;49.880;8.836;2022-11-20T07:24:54;26.67;;;12.50;;
6288;SDS011;3177;49.880;8.836;2022-11-20T07:27:21;26.27;;;13.87;;
6288;SDS011;3177;49.880;8.836;2022-11-20T07:29:48;26.43;;;13.10;;
6288;SDS011;3177;49.880;8.836;2022-11-20T07:32:15;32.90;;;14.57;;
6288;SDS011;3177;49.880;8.836;2022-11-20T07:34:44;23.83;;;12.40;;
6288;SDS011;3177;49.880;8.836;2022-11-20T07:37:11;21.00;;;12.43;;
6288;SDS011;3177;49.880;8.836;2022-11-20T07:39:38;23.67;;;12.73;;
6288;SDS011;3177;49.880;8.836;2022-11-20T07:42:06;22.83;;;12.17;;
6288;SDS011;3177;49.880;8.836;2022-11-20T07:44:33;23.17;;;11.93;;
6288;SDS011;3177;49.880;8.836;2022-11-20T07:47:00;23.23;;;11.97;;
6288;SDS011;3177;49.880;8.836;2022-11-20T07:49:27;27.67;;;11.93;;
6288;SDS011;3177;49.880;8.836;2022-11-20T07:51:56;23.83;;;12.63;;
6288;SDS011;3177;49.880;8.836;2022-11-20T07:54:23;25.80;;;12.73;;
6288;SDS011;3177;49.880;8.836;2022-11-20T07:56:50;24.87;;;12.37;;
6288;SDS011;3177;49.880;8.836;2022-11-20T07:59:17;22.63;;;13.37;;
6288;SDS011;3177;49.880;8.836;2022-11-20T08:01:44;28.40;;;13.53;;
6288;SDS011;3177;49.880;8.836;2022-11-20T08:04:11;29.00;;;13.13;;
6288;SDS011;3177;49.880;8.836;2022-11-20T08:06:41;27.97;;;13.37;;
6288;SDS011;3177;49.880;8.836;2022-11-20T08:09:09;24.17;;;12.43;;
6288;SDS011;3177;49.880;8.836;2022-11-20T08:11:36;19.60;;;11.87;;
6288;SDS011;3177;49.880;8.836;2022-11-20T08:14:32;19.70;;;11.60;;
6288;SDS011;3177;49.880;8.836;2022-11-20T08:16:59;21.57;;;11.80;;
6288;SDS011;3177;49.880;8.836;2022-11-20T08:19:27;22.60;;;12.67;;
6288;SDS011;3177;49.880;8.836;2022-11-20T08:21:54;27.13;;;13.67;;
6288;SDS011;3177;49.880;8.836;2022-11-20T08:24:23;23.17;;;12.57;;
6288;SDS011;3177;49.880;8.836;2022-11-20T08:26:51;25.17;;;13.20;;
6288;SDS011;3177;49.880;8.836;2022-11-20T08:29:18;25.20;;;12.83;;
6288;SDS011;3177;49.880;8.836;2022-11-20T08:31:45;26.70;;;12.17;;
6288;SDS011;3177;49.880;8.836;2022-11-20T08:34:12;22.47;;;12.20;;
6288;SDS011;3177;49.880;8.836;2022-11-20T08:36:39;23.97;;;13.47;;
6288;SDS011;3177;49.880;8.836;2022-11-20T08:39:06;24.40;;;13.47;;
6288;SDS011;3177;49.880;8.836;2022-11-20T08:41:35;31.87;;;14.53;;
6288;SDS011;3177;49.880;8.836;2022-11-20T08:44:02;29.97;;;14.57;;
6288;SDS011;3177;49.880;8.836;2022-11-20T08:46:31;27.30;;;13.90;;
6288;SDS011;3177;49.880;8.836;2022-11-20T08:48:59;28.33;;;14.27;;
6288;SDS011;3177;49.880;8.836;2022-11-20T08:51:26;28.90;;;15.57;;
6288;SDS011;3177;49.880;8.836;2022-11-20T08:53:53;32.10;;;15.57;;
6288;SDS011;3177;49.880;8.836;2022-11-20T08:56:20;33.23;;;16.50;;
6288;SDS011;3177;49.880;8.836;2022-11-20T08:58:49;31.63;;;14.80;;
6288;SDS011;3177;49.880;8.836;2022-11-20T09:01:16;32.03;;;15.37;;
6288;SDS011;3177;49.880;8.836;2022-11-20T09:03:44;29.00;;;15.00;;
6288;SDS011;3177;49.880;8.836;2022-11-20T09:06:11;35.67;;;18.17;;
6288;SDS011;3177;49.880;8.836;2022-11-20T09:08:38;35.23;;;17.43;;
6288;SDS011;3177;49.880;8.836;2022-11-20T09:11:06;39.47;;;17.80;;
6288;SDS011;3177;49.880;8.836;2022-11-20T09:13:33;29.70;;;15.03;;
6288;SDS011;3177;49.880;8.836;2022-11-20T09:16:03;28.00;;;14.80;;
6288;SDS011;3177;49.880;8.836;2022-11-20T09:18:30;25.67;;;14.23;;
6288;SDS011;3177;49.880;8.836;2022-11-20T09:20:58;30.93;;;16.30;;
6288;SDS011;3177;49.880;8.836;2022-11-20T09:23:25;33.33;;;15.90;;
6288;SDS011;3177;49.880;8.836;2022-11-20T09:25:52;31.60;;;15.10;;
6288;SDS011;3177;49.880;8.836;2022-11-20T09:28:20;26.20;;;15.13;;
6288;SDS011;3177;49.880;8.836;2022-11-20T09:30:47;25.43;;;13.17;;
6288;SDS011;3177;49.880;8.836;2022-11-20T09:33:16;20.63;;;12.43;;
6288;SDS011;3177;49.880;8.836;2022-11-20T09:35:43;26.93;;;14.93;;
6288;SDS011;3177;49.880;8.836;2022-11-20T09:38:11;29.40;;;16.57;;
6288;SDS011;3177;49.880;8.836;2022-11-20T09:40:40;25.23;;;14.23;;
6288;SDS011;3177;49.880;8.836;2022-11-20T09:43:11;23.70;;;14.00;;
6288;SDS011;3177;49.880;8.836;2022-11-20T09:45:55;25.13;;;13.83;;
6288;SDS011;3177;49.880;8.836;2022-11-20T09:51:08;22.70;;;13.97;;
6288;SDS011;3177;49.880;8.836;2022-11-20T09:53:41;23.20;;;14.63;;
6288;SDS011;3177;49.880;8.836;2022-11-20T09:56:11;26.90;;;14.53;;
6288;SDS011;3177;49.880;8.836;2022-11-20T09:58:39;24.77;;;13.00;;
6288;SDS011;3177;49.880;8.836;2022-11-20T10:01:09;25.37;;;14.13;;
6288;SDS011;3177;49.880;8.836;2022-11-20T10:03:38;28.03;;;16.17;;
6288;SDS011;3177;49.880;8.836;2022-11-20T10:06:09;21.37;;;13.27;;
6288;SDS011;3177;49.880;8.836;2022-11-20T10:08:39;27.10;;;14.13;;
6288;SDS011;3177;49.880;8.836;2022-11-20T10:11:10;29.80;;;15.10;;
6288;SDS011;3177;49.880;8.836;2022-11-20T10:13:46;28.10;;;15.00;;
6288;SDS011;3177;49.880;8.836;2022-11-20T10:16:18;24.70;;;13.87;;
6288;SDS011;3177;49.880;8.836;2022-11-20T10:18:53;24.20;;;14.33;;
6288;SDS011;3177;49.880;8.836;2022-11-20T10:21:26;24.77;;;15.30;;
6288;SDS011;3177;49.880;8.836;2022-11-20T10:24:04;28.07;;;15.47;;
6288;SDS011;3177;49.880;8.836;2022-11-20T10:26:38;23.57;;;13.20;;
6288;SDS011;3177;49.880;8.836;2022-11-20T10:29:07;17.30;;;12.07;;
6288;SDS011;3177;49.880;8.836;2022-11-20T10:31:37;20.73;;;13.27;;
6288;SDS011;3177;49.880;8.836;2022-11-20T10:34:05;18.23;;;11.70;;
6288;SDS011;3177;49.880;8.836;2022-11-20T10:36:35;20.00;;;12.00;;
6288;SDS011;3177;49.880;8.836;2022-11-20T10:39:06;19.47;;;11.70;;
6288;SDS011;3177;49.880;8.836;2022-11-20T10:41:35;21.60;;;12.50;;
6288;SDS011;3177;49.880;8.836;2022-11-20T10:44:05;20.77;;;13.27;;
6288;SDS011;3177;49.880;8.836;2022-11-20T10:46:34;18.97;;;11.87;;
6288;SDS011;3177;49.880;8.836;2022-11-20T10:49:04;19.10;;;12.03;;
6288;SDS011;3177;49.880;8.836;2022-11-20T10:51:35;16.67;;;10.63;;
6288;SDS011;3177;49.880;8.836;2022-11-20T10:54:06;17.60;;;10.53;;
6288;SDS011;3177;49.880;8.836;2022-11-20T10:56:40;18.17;;;10.83;;
6288;SDS011;3177;49.880;8.836;2022-11-20T10:59:14;17.70;;;11.07;;
6288;SDS011;3177;49.880;8.836;2022-11-20T11:01:51;17.23;;;10.60;;
6288;SDS011;3177;49.880;8.836;2022-11-20T11:04:32;16.87;;;11.17;;
6288;SDS011;3177;49.880;8.836;2022-11-20T11:07:05;16.30;;;10.57;;
6288;SDS011;3177;49.880;8.836;2022-11-20T11:09:34;12.13;;;9.27;;
6288;SDS011;3177;49.880;8.836;2022-11-20T11:12:05;16.53;;;10.83;;
6288;SDS011;3177;49.880;8.836;2022-11-20T11:14:41;15.43;;;10.47;;
6288;SDS011;3177;49.880;8.836;2022-11-20T11:17:17;16.97;;;10.87;;
6288;SDS011;3177;49.880;8.836;2022-11-20T11:19:45;14.17;;;10.50;;
6288;SDS011;3177;49.880;8.836;2022-11-20T11:22:16;16.33;;;10.97;;
6288;SDS011;3177;49.880;8.836;2022-11-20T11:24:51;17.30;;;12.20;;
6288;SDS011;3177;49.880;8.836;2022-11-20T11:27:18;14.17;;;10.03;;
6288;SDS011;3177;49.880;8.836;2022-11-20T11:29:45;15.47;;;11.53;;
6288;SDS011;3177;49.880;8.836;2022-11-20T11:32:14;18.00;;;12.13;;
6288;SDS011;3177;49.880;8.836;2022-11-20T11:34:41;18.73;;;11.40;;
6288;SDS011;3177;49.880;8.836;2022-11-20T11:37:10;17.47;;;10.77;;
6288;SDS011;3177;49.880;8.836;2022-11-20T11:39:41;16.07;;;9.50;;
6288;SDS011;3177;49.880;8.836;2022-11-20T11:42:09;15.87;;;9.87;;
6288;SDS011;3177;49.880;8.836;2022-11-20T11:44:43;18.00;;;11.23;;
6288;SDS011;3177;49.880;8.836;2022-11-20T11:47:29;17.20;;;10.77;;
6288;SDS011;3177;49.880;8.836;2022-11-20T11:50:01;14.23;;;10.60;;
6288;SDS011;3177;49.880;8.836;2022-11-20T11:52:28;17.07;;;10.93;;
6288;SDS011;3177;49.880;8.836;2022-11-20T11:54:57;14.63;;;10.07;;
6288;SDS011;3177;49.880;8.836;2022-11-20T11:57:26;15.60;;;10.17;;
6288;SDS011;3177;49.880;8.836;2022-11-20T11:59:59;17.20;;;9.70;;
6288;SDS011;3177;49.880;8.836;2022-11-20T12:02:29;14.50;;;10.07;;
6288;SDS011;3177;49.880;8.836;2022-11-20T12:04:59;14.33;;;9.90;;
6288;SDS011;3177;49.880;8.836;2022-11-20T12:07:29;13.97;;;9.97;;
6288;SDS011;3177;49.880;8.836;2022-11-20T12:10:03;13.93;;;9.57;;
6288;SDS011;3177;49.880;8.836;2022-11-20T12:12:31;15.83;;;10.23;;
6288;SDS011;3177;49.880;8.836;2022-11-20T12:15:01;13.90;;;10.20;;
6288;SDS011;3177;49.880;8.836;2022-11-20T12:17:29;15.23;;;10.37;;
6288;SDS011;3177;49.880;8.836;2022-11-20T12:19:56;12.47;;;9.00;;
6288;SDS011;3177;49.880;8.836;2022-11-20T12:22:25;14.10;;;9.87;;
6288;SDS011;3177;49.880;8.836;2022-11-20T12:24:57;13.53;;;8.87;;
6288;SDS011;3177;49.880;8.836;2022-11-20T12:27:40;11.77;;;8.07;;
6288;SDS011;3177;49.880;8.836;2022-11-20T12:30:10;13.17;;;9.53;;
6288;SDS011;3177;49.880;8.836;2022-11-20T12:32:42;14.40;;;9.10;;
6288;SDS011;3177;49.880;8.836;2022-11-20T12:35:18;12.50;;;9.50;;
6288;SDS011;3177;49.880;8.836;2022-11-20T12:37:48;15.97;;;8.87;;
6288;SDS011;3177;49.880;8.836;2022-11-20T12:40:20;12.90;;;9.07;;
6288;SDS011;3177;49.880;8.836;2022-11-20T12:42:54;16.23;;;9.53;;
6288;SDS011;3177;49.880;8.836;2022-11-20T12:45:53;15.43;;;8.73;;
6288;SDS011;3177;49.880;8.836;2022-11-20T12:57:09;13.90;;;10.17;;
6288;SDS011;3177;49.880;8.836;2022-11-20T13:00:02;13.97;;;10.63;;
6288;SDS011;3177;49.880;8.836;2022-11-20T13:02:33;12.87;;;9.30;;
6288;SDS011;3177;49.880;8.836;2022-11-20T13:05:05;13.97;;;9.77;;
6288;SDS011;3177;49.880;8.836;2022-11-20T13:07:38;15.53;;;10.93;;
6288;SDS011;3177;49.880;8.836;2022-11-20T13:13:07;15.00;;;9.70;;
6288;SDS011;3177;49.880;8.836;2022-11-20T13:15:47;11.60;;;9.47;;
6288;SDS011;3177;49.880;8.836;2022-11-20T13:18:16;13.70;;;9.30;;
6288;SDS011;3177;49.880;8.836;2022-11-20T13:20:44;14.53;;;9.43;;
6288;SDS011;3177;49.880;8.836;2022-11-20T13:23:22;14.90;;;10.37;;
6288;SDS011;3177;49.880;8.836;2022-11-20T13:25:49;12.90;;;9.43;;
6288;SDS011;3177;49.880;8.836;2022-11-20T13:28:26;13.53;;;9.70;;
6288;SDS011;3177;49.880;8.836;2022-11-20T13:30:55;16.80;;;11.20;;
6288;SDS011;3177;49.880;8.836;2022-11-20T13:33:23;14.83;;;9.97;;
6288;SDS011;3177;49.880;8.836;2022-11-20T13:35:55;13.13;;;8.70;;
6288;SDS011;3177;49.880;8.836;2022-11-20T13:38:22;18.00;;;10.83;;
6288;SDS011;3177;49.880;8.836;2022-11-20T13:40:53;18.83;;;13.73;;
6288;SDS011;3177;49.880;8.836;2022-11-20T13:43:33;17.23;;;12.60;;
6288;SDS011;3177;49.880;8.836;2022-11-20T13:46:03;17.07;;;12.33;;
6288;SDS011;3177;49.880;8.836;2022-11-20T13:48:32;13.73;;;10.70;;
6288;SDS011;3177;49.880;8.836;2022-11-20T13:51:04;13.47;;;9.67;;
6288;SDS011;3177;49.880;8.836;2022-11-20T13:53:53;15.63;;;10.37;;
6288;SDS011;3177;49.880;8.836;2022-11-20T13:56:24;14.90;;;9.67;;
6288;SDS011;3177;49.880;8.836;2022-11-20T13:58:54;14.07;;;9.83;;
6288;SDS011;3177;49.880;8.836;2022-11-20T14:01:28;13.57;;;9.73;;
6288;SDS011;3177;49.880;8.836;2022-11-20T14:03:56;16.20;;;10.60;;
6288;SDS011;3177;49.880;8.836;2022-11-20T14:06:25;12.50;;;9.30;;
6288;SDS011;3177;49.880;8.836;2022-11-20T14:08:53;13.53;;;9.10;;
6288;SDS011;3177;49.880;8.836;2022-11-20T14:11:21;11.77;;;8.80;;
6288;SDS011;3177;49.880;8.836;2022-11-20T14:13:53;11.73;;;9.00;;
6288;SDS011;3177;49.880;8.836;2022-11-20T14:16:21;11.37;;;8.77;;
6288;SDS011;3177;49.880;8.836;2022-11-20T14:18:49;17.63;;;9.33;;
6288;SDS011;3177;49.880;8.836;2022-11-20T14:21:23;15.47;;;9.40;;
6288;SDS011;3177;49.880;8.836;2022-11-20T14:26:27;15.00;;;9.53;;
6288;SDS011;3177;49.880;8.836;2022-11-20T14:28:54;13.87;;;9.40;;
6288;SDS011;3177;49.880;8.836;2022-11-20T14:31:22;13.47;;;9.20;;
6288;SDS011;3177;49.880;8.836;2022-11-20T14:33:52;13.47;;;9.50;;
6288;SDS011;3177;49.880;8.836;2022-11-20T14:36:20;13.50;;;9.50;;
6288;SDS011;3177;49.880;8.836;2022-11-20T14:38:48;12.87;;;8.90;;
6288;SDS011;3177;49.880;8.836;2022-11-20T14:41:16;11.60;;;8.80;;
6288;SDS011;3177;49.880;8.836;2022-11-20T14:43:45;13.57;;;9.07;;
6288;SDS011;3177;49.880;8.836;2022-11-20T14:46:12;13.63;;;9.50;;
6288;SDS011;3177;49.880;8.836;2022-11-20T14:48:41;15.63;;;9.43;;
6288;SDS011;3177;49.880;8.836;2022-11-20T14:51:11;12.27;;;9.13;;
6288;SDS011;3177;49.880;8.836;2022-11-20T14:53:39;12.70;;;8.57;;
6288;SDS011;3177;49.880;8.836;2022-11-20T14:56:07;15.57;;;9.17;;
6288;SDS011;3177;49.880;8.836;2022-11-20T14:58:35;15.50;;;8.90;;
6288;SDS011;3177;49.880;8.836;2022-11-20T15:01:03;12.53;;;9.07;;
6288;SDS011;3177;49.880;8.836;2022-11-20T15:03:31;10.57;;;8.23;;
6288;SDS011;3177;49.880;8.836;2022-11-20T15:05:58;12.03;;;8.57;;
6288;SDS011;3177;49.880;8.836;2022-11-20T15:08:27;12.33;;;8.50;;
6288;SDS011;3177;49.880;8.836;2022-11-20T15:10:54;12.00;;;8.10;;
6288;SDS011;3177;49.880;8.836;2022-11-20T15:13:26;12.20;;;8.10;;
6288;SDS011;3177;49.880;8.836;2022-11-20T15:15:56;12.37;;;8.10;;
6288;SDS011;3177;49.880;8.836;2022-11-20T15:18:24;10.37;;;8.30;;
6288;SDS011;3177;49.880;8.836;2022-11-20T15:20:53;27.27;;;16.57;;